createdAt,value
2019-03-11T00:01:01.500Z,2.10
2019-03-11T00:03:31.260Z,2.22
2019-03-11T00:06:01.121Z,2.28
2019-03-11T00:08:30.883Z,2.35
2019-03-11T00:11:00.644Z,2.30
2019-03-11T00:13:30.395Z,2.28
2019-03-11T00:16:00.179Z,2.29
2019-03-11T00:18:29.945Z,2.36
2019-03-11T00:21:01.171Z,2.40
2019-03-11T00:23:31.035Z,2.28
2019-03-11T00:26:00.826Z,2.38
2019-03-11T00:28:30.586Z,2.44
2019-03-11T00:31:00.339Z,2.43
2019-03-11T00:33:30.090Z,2.40
2019-03-11T00:35:59.823Z,2.47
2019-03-11T00:38:29.589Z,2.46
2019-03-11T00:40:59.324Z,2.54
2019-03-11T00:43:29.081Z,2.58
2019-03-11T00:45:58.803Z,2.59
2019-03-11T00:48:28.573Z,2.63
2019-03-11T00:50:58.307Z,2.62
2019-03-11T00:53:28.054Z,2.65
2019-03-11T00:55:57.776Z,2.70
2019-03-11T00:58:27.530Z,2.73
2019-03-11T01:00:57.251Z,2.78
2019-03-11T01:03:26.994Z,2.71
2019-03-11T01:05:56.724Z,2.75
2019-03-11T01:08:29.041Z,2.81
2019-03-11T01:10:57.904Z,2.82
2019-03-11T01:13:27.670Z,2.79
2019-03-11T01:15:57.482Z,2.77
2019-03-11T01:18:27.277Z,2.82
2019-03-11T01:20:57.108Z,2.81
2019-03-11T01:23:26.890Z,2.86
2019-03-11T01:25:56.656Z,2.87
2019-03-11T01:28:26.415Z,2.88
2019-03-11T01:30:56.167Z,2.89
2019-03-11T01:33:25.889Z,2.96
2019-03-11T01:35:55.642Z,2.95
2019-03-11T01:38:25.387Z,2.99
2019-03-11T01:40:55.148Z,2.96
2019-03-11T01:43:24.874Z,2.99
2019-03-11T01:45:54.638Z,3.01
2019-03-11T01:48:24.367Z,2.99
2019-03-11T01:50:54.159Z,2.97
2019-03-11T01:53:23.878Z,2.92
2019-03-11T01:55:53.678Z,2.92
2019-03-11T01:58:23.403Z,2.90
2019-03-11T02:00:53.161Z,2.88
2019-03-11T02:03:22.932Z,2.86
2019-03-11T02:05:52.711Z,2.92
2019-03-11T02:08:22.465Z,2.90
2019-03-11T02:10:52.211Z,2.90
2019-03-11T02:13:21.985Z,2.92
2019-03-11T02:15:51.709Z,2.92
2019-03-11T02:18:21.757Z,2.96
2019-03-11T02:20:51.536Z,2.96
2019-03-11T02:23:21.295Z,2.98
2019-03-11T02:25:51.049Z,3.01
2019-03-11T02:28:20.801Z,3.00
2019-03-11T02:30:50.532Z,3.01
2019-03-11T02:33:20.293Z,3.08
2019-03-11T02:35:50.071Z,3.05
2019-03-11T02:38:19.826Z,3.08
2019-03-11T02:40:49.596Z,3.10
2019-03-11T02:43:19.352Z,3.13
2019-03-11T02:45:49.106Z,3.11
2019-03-11T02:48:18.957Z,3.13
2019-03-11T02:50:48.743Z,3.11
2019-03-11T02:53:18.497Z,3.15
2019-03-11T02:55:50.965Z,3.15
2019-03-11T02:58:19.721Z,3.19
2019-03-11T03:00:51.082Z,3.20
2019-03-11T03:03:38.957Z,3.19
2019-03-11T03:06:10.327Z,3.19
2019-03-11T03:08:40.287Z,3.19
2019-03-11T03:11:10.086Z,3.20
2019-03-11T03:13:39.857Z,3.20
2019-03-11T03:16:09.608Z,3.20
2019-03-11T03:18:39.363Z,3.17
2019-03-11T03:21:09.243Z,3.12
2019-03-11T03:23:38.996Z,3.10
2019-03-11T03:26:08.773Z,3.05
2019-03-11T03:28:38.538Z,3.07
2019-03-11T03:31:08.322Z,3.10
2019-03-11T03:33:38.137Z,3.06
2019-03-11T03:36:07.970Z,3.07
2019-03-11T03:38:37.749Z,3.06
2019-03-11T03:41:07.612Z,3.03
2019-03-11T03:43:37.381Z,2.98
2019-03-11T03:46:17.960Z,2.99
2019-03-11T03:48:38.711Z,2.96
2019-03-11T03:51:08.600Z,2.88
2019-03-11T03:53:38.381Z,2.82
2019-03-11T03:56:08.172Z,2.87
2019-03-11T03:58:37.983Z,2.86
2019-03-11T04:01:07.740Z,2.83
2019-03-11T04:03:37.508Z,2.77
2019-03-11T04:06:07.244Z,2.79
2019-03-11T04:08:37.005Z,2.80
2019-03-11T04:11:06.739Z,2.86
2019-03-11T04:13:36.513Z,2.87
2019-03-11T04:16:06.252Z,2.89
2019-03-11T04:18:52.759Z,2.89
2019-03-11T04:21:22.533Z,2.95
2019-03-11T04:23:52.296Z,2.98
2019-03-11T04:26:22.963Z,3.02
2019-03-11T04:28:52.733Z,3.04
2019-03-11T04:31:22.495Z,3.02
2019-03-11T04:33:52.261Z,3.05
2019-03-11T04:36:22.034Z,3.07
2019-03-11T04:38:51.796Z,3.08
2019-03-11T04:41:21.568Z,3.08
2019-03-11T04:43:51.333Z,3.08
2019-03-11T04:46:21.094Z,3.08
2019-03-11T04:48:50.857Z,3.07
2019-03-11T04:51:20.632Z,3.01
2019-03-11T04:53:50.401Z,3.06
2019-03-11T04:56:20.170Z,3.07
2019-03-11T04:58:49.945Z,3.04
2019-03-11T05:01:19.710Z,3.05
2019-03-11T05:03:49.501Z,3.04
2019-03-11T05:06:19.254Z,3.02
2019-03-11T05:08:49.015Z,2.98
2019-03-11T05:11:18.784Z,2.92
2019-03-11T05:13:48.642Z,2.93
2019-03-11T05:16:18.401Z,2.95
2019-03-11T05:18:48.167Z,2.93
2019-03-11T05:21:19.499Z,2.93
2019-03-11T05:23:55.911Z,2.96
2019-03-11T05:26:25.710Z,2.98
2019-03-11T05:28:55.517Z,2.99
2019-03-11T05:31:25.334Z,2.99
2019-03-11T05:33:55.131Z,3.00
2019-03-11T05:36:24.911Z,3.03
2019-03-11T05:38:54.719Z,3.04
2019-03-11T05:41:24.490Z,3.04
2019-03-11T05:43:54.258Z,3.02
2019-03-11T05:46:24.035Z,2.98
2019-03-11T05:48:53.784Z,3.00
2019-03-11T05:51:31.353Z,3.03
2019-03-11T05:53:55.022Z,3.03
2019-03-11T05:56:24.779Z,3.04
2019-03-11T05:58:54.562Z,3.02
2019-03-11T06:01:24.334Z,3.05
2019-03-11T06:03:54.105Z,3.07
2019-03-11T06:06:23.867Z,3.05
2019-03-11T06:08:53.649Z,3.08
2019-03-11T06:11:23.428Z,3.12
2019-03-11T06:13:53.186Z,3.08
2019-03-11T06:16:22.947Z,3.09
2019-03-11T06:18:52.727Z,3.09
2019-03-11T06:21:24.071Z,3.06
2019-03-11T06:23:53.832Z,3.08
2019-03-11T06:26:23.596Z,3.09
2019-03-11T06:28:53.377Z,3.15
2019-03-11T06:31:23.138Z,3.20
2019-03-11T06:33:52.908Z,3.24
2019-03-11T06:36:22.672Z,3.23
2019-03-11T06:38:52.440Z,3.26
2019-03-11T06:41:22.212Z,3.30
2019-03-11T06:43:51.973Z,3.30
2019-03-11T06:46:22.139Z,3.35
2019-03-11T06:48:51.974Z,3.43
2019-03-11T06:51:21.763Z,3.50
2019-03-11T06:53:51.535Z,3.51
2019-03-11T06:56:21.303Z,3.40
2019-03-11T06:58:51.090Z,3.44
2019-03-11T07:01:20.832Z,3.49
2019-03-11T07:03:50.596Z,3.48
2019-03-11T07:06:20.369Z,3.49
2019-03-11T07:08:50.141Z,3.50
2019-03-11T07:11:19.898Z,3.42
2019-03-11T07:13:50.053Z,3.55
2019-03-11T07:16:20.014Z,3.56
2019-03-11T07:18:49.769Z,3.52
2019-03-11T07:21:19.543Z,3.49
2019-03-11T07:23:49.308Z,3.47
2019-03-11T07:26:19.139Z,3.37
2019-03-11T07:28:48.938Z,3.37
2019-03-11T07:31:18.754Z,3.39
2019-03-11T07:33:48.511Z,3.44
2019-03-11T07:36:18.744Z,3.53
2019-03-11T07:38:48.516Z,3.56
2019-03-11T07:41:18.291Z,3.68
2019-03-11T07:43:48.095Z,3.71
2019-03-11T07:46:17.871Z,3.81
2019-03-11T07:48:47.681Z,3.85
2019-03-11T07:51:17.445Z,3.92
2019-03-11T07:53:47.205Z,3.87
2019-03-11T07:56:16.980Z,3.89
2019-03-11T07:58:46.720Z,3.94
2019-03-11T08:01:16.499Z,3.92
2019-03-11T08:03:46.247Z,3.88
2019-03-11T08:06:18.977Z,3.87
2019-03-11T08:08:47.453Z,3.88
2019-03-11T08:11:17.220Z,3.86
2019-03-11T08:13:47.542Z,3.74
2019-03-11T08:16:18.057Z,3.77
2019-03-11T08:18:47.855Z,3.71
2019-03-11T08:21:17.616Z,3.66
2019-03-11T08:23:47.384Z,3.59
2019-03-11T08:26:17.161Z,3.62
2019-03-11T08:28:47.036Z,3.62
2019-03-11T08:31:16.816Z,3.53
2019-03-11T08:33:46.592Z,3.56
2019-03-11T08:36:16.467Z,3.61
2019-03-11T08:38:46.239Z,3.60
2019-03-11T08:41:16.002Z,3.58
2019-03-11T08:43:45.755Z,3.63
2019-03-11T08:46:15.534Z,3.49
2019-03-11T08:48:45.354Z,3.53
2019-03-11T08:51:15.133Z,3.49
2019-03-11T08:53:44.915Z,3.47
2019-03-11T08:56:14.711Z,3.46
2019-03-11T08:58:44.487Z,3.53
2019-03-11T09:01:14.280Z,3.53
2019-03-11T09:03:44.038Z,3.53
2019-03-11T09:06:13.795Z,3.43
2019-03-11T09:08:43.554Z,3.54
2019-03-11T09:11:13.290Z,3.64
2019-03-11T09:13:43.066Z,3.61
2019-03-11T09:16:12.796Z,3.69
2019-03-11T09:18:42.561Z,3.65
2019-03-11T09:21:12.295Z,3.70
2019-03-11T09:23:42.075Z,3.78
2019-03-11T09:26:11.815Z,3.77
2019-03-11T09:28:41.582Z,3.80
2019-03-11T09:31:11.322Z,3.76
2019-03-11T09:33:41.704Z,3.79
2019-03-11T09:36:11.551Z,3.80
2019-03-11T09:38:41.363Z,3.81
2019-03-11T09:41:11.093Z,3.84
2019-03-11T09:43:40.856Z,3.89
2019-03-11T09:46:10.635Z,3.91
2019-03-11T09:48:40.882Z,3.94
2019-03-11T09:51:10.676Z,3.94
2019-03-11T09:53:40.470Z,3.95
2019-03-11T09:56:10.237Z,3.94
2019-03-11T09:58:40.026Z,3.94
2019-03-11T10:01:09.782Z,4.02
2019-03-11T10:03:39.522Z,4.09
2019-03-11T10:06:09.296Z,4.12
2019-03-11T10:08:39.080Z,4.25
2019-03-11T10:11:08.851Z,4.35
2019-03-11T10:13:38.581Z,4.33
2019-03-11T10:16:08.378Z,4.46
2019-03-11T10:18:38.118Z,4.47
2019-03-11T10:21:07.900Z,4.52
2019-03-11T10:23:37.671Z,4.58
2019-03-11T10:26:07.461Z,4.51
2019-03-11T10:28:37.227Z,4.58
2019-03-11T10:31:07.003Z,4.60
2019-03-11T10:33:36.773Z,4.72
2019-03-11T10:36:06.510Z,4.79
2019-03-11T10:38:36.307Z,4.89
2019-03-11T10:41:06.142Z,4.99
2019-03-11T10:43:36.106Z,5.08
2019-03-11T10:46:05.844Z,4.98
2019-03-11T10:48:37.553Z,5.03
2019-03-11T10:51:07.084Z,4.98
2019-03-11T10:53:36.881Z,4.94
2019-03-11T10:56:06.643Z,4.84
2019-03-11T10:58:36.439Z,4.93
2019-03-11T11:01:06.201Z,5.06
2019-03-11T11:03:35.965Z,5.18
2019-03-11T11:06:05.746Z,5.26
2019-03-11T11:08:35.679Z,5.32
2019-03-11T11:11:05.461Z,5.27
2019-03-11T11:13:37.904Z,5.51
2019-03-11T11:16:07.685Z,5.69
2019-03-11T11:18:37.407Z,5.80
2019-03-11T11:21:07.173Z,5.89
2019-03-11T11:23:36.916Z,5.98
2019-03-11T11:26:06.719Z,6.08
2019-03-11T11:28:36.449Z,6.20
2019-03-11T11:31:06.235Z,6.20
2019-03-11T11:33:35.963Z,6.16
2019-03-11T11:36:05.744Z,5.93
2019-03-11T11:38:35.503Z,6.00
2019-03-11T11:41:05.285Z,6.07
2019-03-11T11:43:35.046Z,5.97
2019-03-11T11:46:04.810Z,6.09
2019-03-11T11:48:34.582Z,5.96
2019-03-11T11:51:04.306Z,6.11
2019-03-11T11:53:34.071Z,6.08
2019-03-11T11:56:03.805Z,6.27
2019-03-11T11:58:33.571Z,6.31
2019-03-11T12:01:03.412Z,6.40
2019-03-11T12:03:33.183Z,6.47
2019-03-11T12:06:02.946Z,6.42
2019-03-11T12:08:32.738Z,6.41
2019-03-11T12:11:02.490Z,6.26
2019-03-11T12:13:32.259Z,6.20
2019-03-11T12:16:02.104Z,6.23
2019-03-11T12:18:32.148Z,6.23
2019-03-11T12:21:02.013Z,6.06
2019-03-11T12:23:32.269Z,6.02
2019-03-11T12:26:02.077Z,6.07
2019-03-11T12:28:31.960Z,6.09
2019-03-11T12:31:01.835Z,6.11
2019-03-11T12:33:31.642Z,5.92
2019-03-11T12:36:01.412Z,5.94
2019-03-11T12:38:31.220Z,5.99
2019-03-11T12:41:01.082Z,6.03
2019-03-11T12:43:30.861Z,6.10
2019-03-11T12:46:00.605Z,6.12
2019-03-11T12:48:30.356Z,6.10
2019-03-11T12:51:00.117Z,6.02
2019-03-11T12:53:29.858Z,5.85
2019-03-11T12:55:59.624Z,5.85
2019-03-11T12:58:40.777Z,5.78
2019-03-11T13:01:03.441Z,5.81
2019-03-11T13:03:32.326Z,5.77
2019-03-11T13:06:02.091Z,5.47
2019-03-11T13:08:31.857Z,5.04
2019-03-11T13:11:01.635Z,5.01
2019-03-11T13:13:31.414Z,5.11
2019-03-11T13:16:01.905Z,5.15
2019-03-11T13:18:34.436Z,5.15
2019-03-11T13:21:16.287Z,5.25
2019-03-11T13:23:46.135Z,5.35
2019-03-11T13:26:15.919Z,5.53
2019-03-11T13:28:45.686Z,5.76
2019-03-11T13:31:15.450Z,5.80
2019-03-11T13:33:45.229Z,5.82
2019-03-11T13:36:14.971Z,5.76
2019-03-11T13:38:44.771Z,5.88
2019-03-11T13:41:14.525Z,5.97
2019-03-11T13:43:44.499Z,6.04
2019-03-11T13:46:14.375Z,6.00
2019-03-11T13:48:44.168Z,6.10
2019-03-11T13:51:13.939Z,6.06
2019-03-11T13:53:43.731Z,6.02
2019-03-11T13:56:13.558Z,5.94
2019-03-11T13:58:43.324Z,6.01
2019-03-11T14:01:14.661Z,6.01
2019-03-11T14:03:44.389Z,5.87
2019-03-11T14:06:14.217Z,5.77
2019-03-11T14:08:44.004Z,5.60
2019-03-11T14:11:13.788Z,5.59
2019-03-11T14:13:43.558Z,5.57
2019-03-11T14:16:13.324Z,5.54
2019-03-11T14:18:43.085Z,5.59
2019-03-11T14:21:12.825Z,5.56
2019-03-11T14:23:42.612Z,5.53
2019-03-11T14:26:12.349Z,5.55
2019-03-11T14:28:42.125Z,5.56
2019-03-11T14:31:11.897Z,5.58
2019-03-11T14:33:41.677Z,5.51
2019-03-11T14:36:12.879Z,5.24
2019-03-11T14:38:42.663Z,5.14
2019-03-11T14:41:12.426Z,4.74
2019-03-11T14:43:42.197Z,4.43
2019-03-11T14:46:11.961Z,4.23
2019-03-11T14:48:41.707Z,4.21
2019-03-11T14:51:11.486Z,4.26
2019-03-11T14:53:41.211Z,4.25
2019-03-11T14:56:10.968Z,4.24
2019-03-11T14:58:40.728Z,4.12
2019-03-11T15:01:10.492Z,4.19
2019-03-11T15:03:40.565Z,4.16
2019-03-11T15:06:10.291Z,4.04
2019-03-11T15:08:40.077Z,3.89
2019-03-11T15:11:09.812Z,3.82
2019-03-11T15:13:39.609Z,3.70
2019-03-11T15:16:09.351Z,3.68
2019-03-11T15:18:39.118Z,3.56
2019-03-11T15:21:08.889Z,3.53
2019-03-11T15:23:38.684Z,3.51
2019-03-11T15:26:08.451Z,3.38
2019-03-11T15:28:38.203Z,3.37
2019-03-11T15:31:10.771Z,3.37
2019-03-11T15:33:39.409Z,3.32
2019-03-11T15:36:09.196Z,3.28
2019-03-11T15:38:38.929Z,3.29
2019-03-11T15:41:09.821Z,3.38
2019-03-11T15:43:39.566Z,3.47
2019-03-11T15:46:09.342Z,3.49
2019-03-11T15:48:39.112Z,3.55
2019-03-11T15:51:08.960Z,3.62
2019-03-11T15:53:38.746Z,3.60
2019-03-11T15:56:08.512Z,3.71
2019-03-11T15:58:38.285Z,3.68
2019-03-11T16:01:08.053Z,3.76
2019-03-11T16:03:37.832Z,3.73
2019-03-11T16:06:07.572Z,3.45
2019-03-11T16:08:37.385Z,3.22
2019-03-11T16:11:07.128Z,2.90
2019-03-11T16:13:36.898Z,2.74
2019-03-11T16:16:06.681Z,2.68
2019-03-11T16:18:36.471Z,2.63
2019-03-11T16:21:06.255Z,2.63
2019-03-11T16:23:36.029Z,2.71
2019-03-11T16:26:05.795Z,2.76
2019-03-11T16:28:35.533Z,2.79
2019-03-11T16:31:05.344Z,2.82
2019-03-11T16:33:35.086Z,2.85
2019-03-11T16:36:04.864Z,2.87
2019-03-11T16:38:34.635Z,2.86
2019-03-11T16:41:04.382Z,2.93
2019-03-11T16:43:34.181Z,2.87
2019-03-11T16:46:04.650Z,2.89
2019-03-11T16:48:34.663Z,2.94
2019-03-11T16:51:04.414Z,2.95
2019-03-11T16:53:34.187Z,2.93
2019-03-11T16:56:04.249Z,2.97
2019-03-11T16:58:34.043Z,3.04
2019-03-11T17:01:05.400Z,3.07
2019-03-11T17:03:35.218Z,3.09
2019-03-11T17:06:04.998Z,3.15
2019-03-11T17:08:34.767Z,3.17
2019-03-11T17:11:04.544Z,3.20
2019-03-11T17:13:34.270Z,3.22
2019-03-11T17:16:04.119Z,3.16
2019-03-11T17:18:33.859Z,3.23
2019-03-11T17:21:03.621Z,3.23
2019-03-11T17:23:33.494Z,3.25
2019-03-11T17:26:03.315Z,3.31
2019-03-11T17:28:34.100Z,3.29
2019-03-11T17:31:04.610Z,3.36
2019-03-11T17:33:34.838Z,3.34
2019-03-11T17:36:04.668Z,3.38
2019-03-11T17:38:34.440Z,3.38
2019-03-11T17:41:04.289Z,3.45
2019-03-11T17:43:34.210Z,3.43
2019-03-11T17:46:05.059Z,3.41
2019-03-11T17:48:36.579Z,3.42
2019-03-11T17:51:06.444Z,3.42
2019-03-11T17:53:36.539Z,3.47
2019-03-11T17:56:06.586Z,3.48
2019-03-11T17:58:37.925Z,3.47
2019-03-11T18:01:07.862Z,3.49
2019-03-11T18:03:38.361Z,3.50
2019-03-11T18:06:11.972Z,3.52
2019-03-11T18:08:42.451Z,3.56
2019-03-11T18:11:12.460Z,3.59
2019-03-11T18:13:48.015Z,3.56
2019-03-11T18:16:18.443Z,3.54
2019-03-11T18:18:50.137Z,3.58
2019-03-11T18:21:20.402Z,3.53
2019-03-11T18:23:50.413Z,3.49
2019-03-11T18:26:23.205Z,3.33
2019-03-11T18:28:53.020Z,3.40
2019-03-11T18:31:23.279Z,3.23
2019-03-11T18:33:53.164Z,3.25
2019-03-11T18:36:23.307Z,3.28
2019-03-11T18:38:53.172Z,3.28
2019-03-11T18:41:23.125Z,3.27
2019-03-11T18:44:00.914Z,3.26
2019-03-11T18:46:27.545Z,3.31
2019-03-11T18:49:00.568Z,3.35
2019-03-11T18:51:31.208Z,3.34
2019-03-11T18:54:05.595Z,3.38
2019-03-11T18:56:37.659Z,3.43
2019-03-11T18:59:07.696Z,3.48
2019-03-11T19:01:39.436Z,3.48
2019-03-11T19:04:27.926Z,3.54
2019-03-11T19:06:57.890Z,3.52
2019-03-11T19:09:30.756Z,3.57
2019-03-11T19:12:00.739Z,3.55
2019-03-11T19:14:59.006Z,3.52
2019-03-11T19:17:34.955Z,3.59
2019-03-11T19:20:09.724Z,3.56
2019-03-11T19:22:39.565Z,3.59
2019-03-11T19:25:10.843Z,3.47
2019-03-11T19:27:40.809Z,3.48
2019-03-11T19:30:19.068Z,3.42
2019-03-11T19:32:50.373Z,3.42
2019-03-11T19:35:20.282Z,3.45
2019-03-11T19:37:50.608Z,3.43
2019-03-11T19:40:22.961Z,3.49
2019-03-11T19:42:56.545Z,3.49
2019-03-11T19:45:26.934Z,3.46
2019-03-11T19:47:58.090Z,3.48
2019-03-11T19:50:32.557Z,3.54
2019-03-11T19:53:07.422Z,3.50
2019-03-11T19:55:44.056Z,3.50
2019-03-11T19:58:15.623Z,3.45
2019-03-11T20:00:46.182Z,3.44
2019-03-11T20:03:26.399Z,3.46
2019-03-11T20:05:47.853Z,3.48
2019-03-11T20:08:18.250Z,3.46
2019-03-11T20:10:48.279Z,3.53
2019-03-11T20:13:18.837Z,3.57
2019-03-11T20:15:49.012Z,3.51
2019-03-11T20:18:18.977Z,3.57
2019-03-11T20:20:50.646Z,3.53
2019-03-11T20:23:20.754Z,3.52
2019-03-11T20:25:50.796Z,3.54
2019-03-11T20:28:20.866Z,3.51
2019-03-11T20:30:51.249Z,3.55
2019-03-11T20:33:21.301Z,3.52
2019-03-11T20:35:51.525Z,3.51
2019-03-11T20:38:21.433Z,3.49
2019-03-11T20:40:51.954Z,3.36
2019-03-11T20:43:22.191Z,3.39
2019-03-11T20:45:52.302Z,3.36
2019-03-11T20:48:22.303Z,3.38
2019-03-11T20:50:52.248Z,3.41
2019-03-11T20:53:22.404Z,3.36
2019-03-11T20:55:52.766Z,3.28
2019-03-11T20:58:42.427Z,3.36
2019-03-11T21:01:12.475Z,3.36
2019-03-11T21:03:42.382Z,3.33
2019-03-11T21:06:12.598Z,3.32
2019-03-11T21:08:45.449Z,3.30
2019-03-11T21:11:14.553Z,3.28
2019-03-11T21:13:44.490Z,3.28
2019-03-11T21:16:15.132Z,3.34
2019-03-11T21:18:46.510Z,3.29
2019-03-11T21:21:17.367Z,3.23
2019-03-11T21:24:01.275Z,3.23
2019-03-11T21:26:21.515Z,3.18
2019-03-11T21:28:52.694Z,3.10
2019-03-11T21:31:23.743Z,3.10
2019-03-11T21:33:58.755Z,3.03
2019-03-11T21:36:28.143Z,3.03
2019-03-11T21:38:59.367Z,3.05
2019-03-11T21:41:32.529Z,3.06
2019-03-11T21:44:03.626Z,3.04
2019-03-11T21:46:35.426Z,3.10
2019-03-11T21:49:06.114Z,3.13
2019-03-11T21:51:36.450Z,3.11
2019-03-11T21:54:06.672Z,3.10
2019-03-11T21:56:36.484Z,3.10
2019-03-11T21:59:06.288Z,3.06
2019-03-11T22:01:36.094Z,3.14
2019-03-11T22:04:05.845Z,3.16
2019-03-11T22:06:35.602Z,3.20
2019-03-11T22:09:06.439Z,3.21
2019-03-11T22:11:36.211Z,3.18
2019-03-11T22:14:05.952Z,3.09
2019-03-11T22:16:35.724Z,3.07
2019-03-11T22:19:05.492Z,3.02
2019-03-11T22:21:35.260Z,2.99
2019-03-11T22:24:05.032Z,2.91
2019-03-11T22:26:34.808Z,2.81
2019-03-11T22:29:04.577Z,2.76
2019-03-11T22:31:34.357Z,2.74
2019-03-11T22:34:04.095Z,2.74
2019-03-11T22:36:33.857Z,2.71
2019-03-11T22:39:04.235Z,2.66
2019-03-11T22:41:34.014Z,2.68
2019-03-11T22:44:03.798Z,2.80
2019-03-11T22:46:33.578Z,2.79
2019-03-11T22:49:03.348Z,2.82
2019-03-11T22:51:33.105Z,2.84
2019-03-11T22:54:02.882Z,2.76
2019-03-11T22:56:32.621Z,2.72
2019-03-11T22:59:02.385Z,2.71
2019-03-11T23:01:32.165Z,2.66
2019-03-11T23:04:01.916Z,2.58
2019-03-11T23:06:31.681Z,2.46
2019-03-11T23:09:01.442Z,2.40
2019-03-11T23:11:31.219Z,2.39
2019-03-11T23:14:00.984Z,2.33
2019-03-11T23:16:30.746Z,2.33
2019-03-11T23:19:00.523Z,2.36
2019-03-11T23:21:30.289Z,2.39
2019-03-11T23:24:00.050Z,2.37
2019-03-11T23:26:29.824Z,2.29
2019-03-11T23:28:59.598Z,2.27
2019-03-11T23:31:29.358Z,2.24
2019-03-11T23:33:59.116Z,2.23
2019-03-11T23:36:28.891Z,2.17
2019-03-11T23:38:58.649Z,2.18
2019-03-11T23:41:29.216Z,2.12
2019-03-11T23:43:59.170Z,2.08
2019-03-11T23:46:28.927Z,2.09
2019-03-11T23:48:58.700Z,2.02
2019-03-11T23:51:28.457Z,1.97
2019-03-11T23:53:58.324Z,1.99
2019-03-11T23:56:28.213Z,1.98
2019-03-11T23:58:57.986Z,1.96
